sensor_id;sensor_type;location;lat;lon;timestamp;temperature;humidity
284;DHT22;125;52.516;13.426;2022-07-29T00:01:20;16.00;1.00
284;DHT22;125;52.516;13.426;2022-07-29T00:03:47;15.90;1.00
284;DHT22;125;52.516;13.426;2022-07-29T00:06:14;15.90;1.00
284;DHT22;125;52.516;13.426;2022-07-29T00:08:40;15.90;1.00
284;DHT22;125;52.516;13.426;2022-07-29T00:11:07;15.90;1.00
284;DHT22;125;52.516;13.426;2022-07-29T00:13:34;15.80;1.00
284;DHT22;125;52.516;13.426;2022-07-29T00:16:02;15.80;1.00
284;DHT22;125;52.516;13.426;2022-07-29T00:18:28;15.80;1.00
284;DHT22;125;52.516;13.426;2022-07-29T00:20:55;15.80;1.00
284;DHT22;125;52.516;13.426;2022-07-29T00:23:22;15.70;1.00
284;DHT22;125;52.516;13.426;2022-07-29T00:25:48;15.70;1.00
284;DHT22;125;52.516;13.426;2022-07-29T00:28:15;15.70;1.00
284;DHT22;125;52.516;13.426;2022-07-29T00:30:41;15.70;1.00
284;DHT22;125;52.516;13.426;2022-07-29T00:33:10;15.70;1.00
284;DHT22;125;52.516;13.426;2022-07-29T00:35:36;15.70;1.00
284;DHT22;125;52.516;13.426;2022-07-29T00:38:13;15.70;1.00
284;DHT22;125;52.516;13.426;2022-07-29T00:40:40;15.70;1.00
284;DHT22;125;52.516;13.426;2022-07-29T00:43:07;15.60;1.00
284;DHT22;125;52.516;13.426;2022-07-29T00:45:34;15.60;1.00
284;DHT22;125;52.516;13.426;2022-07-29T00:48:01;15.60;1.00
284;DHT22;125;52.516;13.426;2022-07-29T00:50:30;15.60;1.00
284;DHT22;125;52.516;13.426;2022-07-29T00:52:57;15.60;1.00
284;DHT22;125;52.516;13.426;2022-07-29T00:55:24;15.60;1.00
284;DHT22;125;52.516;13.426;2022-07-29T00:57:51;15.70;1.00
284;DHT22;125;52.516;13.426;2022-07-29T01:00:21;15.60;1.00
284;DHT22;125;52.516;13.426;2022-07-29T01:02:48;15.60;1.00
284;DHT22;125;52.516;13.426;2022-07-29T01:05:18;15.60;1.00
284;DHT22;125;52.516;13.426;2022-07-29T01:07:48;15.60;1.00
284;DHT22;125;52.516;13.426;2022-07-29T01:10:16;15.60;1.00
284;DHT22;125;52.516;13.426;2022-07-29T01:12:44;15.60;1.00
284;DHT22;125;52.516;13.426;2022-07-29T01:15:11;15.50;1.00
284;DHT22;125;52.516;13.426;2022-07-29T01:17:43;15.50;1.00
284;DHT22;125;52.516;13.426;2022-07-29T01:20:14;15.50;1.00
284;DHT22;125;52.516;13.426;2022-07-29T01:23:08;15.50;1.00
284;DHT22;125;52.516;13.426;2022-07-29T01:25:55;15.40;1.00
284;DHT22;125;52.516;13.426;2022-07-29T01:28:47;15.40;1.00
284;DHT22;125;52.516;13.426;2022-07-29T01:31:18;15.40;1.00
284;DHT22;125;52.516;13.426;2022-07-29T01:33:51;15.30;1.00
284;DHT22;125;52.516;13.426;2022-07-29T01:36:25;15.30;1.00
284;DHT22;125;52.516;13.426;2022-07-29T01:38:58;15.30;1.00
284;DHT22;125;52.516;13.426;2022-07-29T01:41:31;15.30;1.00
284;DHT22;125;52.516;13.426;2022-07-29T01:44:04;15.30;1.00
284;DHT22;125;52.516;13.426;2022-07-29T01:46:35;15.20;1.00
284;DHT22;125;52.516;13.426;2022-07-29T01:49:11;15.20;1.00
284;DHT22;125;52.516;13.426;2022-07-29T01:51:43;15.20;1.00
284;DHT22;125;52.516;13.426;2022-07-29T01:54:16;15.20;1.00
284;DHT22;125;52.516;13.426;2022-07-29T01:56:48;15.10;1.00
284;DHT22;125;52.516;13.426;2022-07-29T01:59:17;15.10;1.00
284;DHT22;125;52.516;13.426;2022-07-29T02:01:45;15.30;1.00
284;DHT22;125;52.516;13.426;2022-07-29T02:04:15;15.30;1.00
284;DHT22;125;52.516;13.426;2022-07-29T02:06:44;15.10;1.00
284;DHT22;125;52.516;13.426;2022-07-29T02:09:13;15.70;1.00
284;DHT22;125;52.516;13.426;2022-07-29T02:11:48;15.60;1.00
284;DHT22;125;52.516;13.426;2022-07-29T02:14:18;15.00;1.00
284;DHT22;125;52.516;13.426;2022-07-29T02:16:45;14.90;1.00
284;DHT22;125;52.516;13.426;2022-07-29T02:19:14;14.40;1.00
284;DHT22;125;52.516;13.426;2022-07-29T02:21:44;15.00;1.00
284;DHT22;125;52.516;13.426;2022-07-29T02:24:12;14.90;1.00
284;DHT22;125;52.516;13.426;2022-07-29T02:26:40;14.80;1.00
284;DHT22;125;52.516;13.426;2022-07-29T02:29:08;14.90;1.00
284;DHT22;125;52.516;13.426;2022-07-29T02:34:07;15.00;1.00
284;DHT22;125;52.516;13.426;2022-07-29T02:36:34;14.70;1.00
284;DHT22;125;52.516;13.426;2022-07-29T02:39:02;14.80;1.00
284;DHT22;125;52.516;13.426;2022-07-29T02:41:41;14.90;1.00
284;DHT22;125;52.516;13.426;2022-07-29T02:44:10;15.10;1.00
284;DHT22;125;52.516;13.426;2022-07-29T02:46:45;15.10;1.00
284;DHT22;125;52.516;13.426;2022-07-29T02:49:16;14.90;1.00
284;DHT22;125;52.516;13.426;2022-07-29T02:51:49;15.60;1.00
284;DHT22;125;52.516;13.426;2022-07-29T02:54:23;15.00;1.00
284;DHT22;125;52.516;13.426;2022-07-29T02:56:53;14.90;1.00
284;DHT22;125;52.516;13.426;2022-07-29T02:59:26;14.90;1.00
284;DHT22;125;52.516;13.426;2022-07-29T03:01:55;14.90;1.00
284;DHT22;125;52.516;13.426;2022-07-29T03:04:24;15.20;1.00
284;DHT22;125;52.516;13.426;2022-07-29T03:06:53;15.20;1.00
284;DHT22;125;52.516;13.426;2022-07-29T03:09:21;15.00;1.00
284;DHT22;125;52.516;13.426;2022-07-29T03:11:49;15.00;1.00
284;DHT22;125;52.516;13.426;2022-07-29T03:14:17;15.00;1.00
284;DHT22;125;52.516;13.426;2022-07-29T03:16:44;15.10;1.00
284;DHT22;125;52.516;13.426;2022-07-29T03:19:13;15.10;1.00
284;DHT22;125;52.516;13.426;2022-07-29T03:21:40;15.10;1.00
284;DHT22;125;52.516;13.426;2022-07-29T03:24:06;15.10;1.00
284;DHT22;125;52.516;13.426;2022-07-29T03:26:33;15.10;1.00
284;DHT22;125;52.516;13.426;2022-07-29T03:29:00;15.10;1.00
284;DHT22;125;52.516;13.426;2022-07-29T03:31:26;15.20;1.00
284;DHT22;125;52.516;13.426;2022-07-29T03:33:53;15.10;1.00
284;DHT22;125;52.516;13.426;2022-07-29T03:36:21;15.20;1.00
284;DHT22;125;52.516;13.426;2022-07-29T03:38:48;15.20;1.00
284;DHT22;125;52.516;13.426;2022-07-29T03:41:16;15.20;1.00
284;DHT22;125;52.516;13.426;2022-07-29T03:43:46;15.20;1.00
284;DHT22;125;52.516;13.426;2022-07-29T03:46:14;15.20;1.00
284;DHT22;125;52.516;13.426;2022-07-29T03:48:45;15.20;1.00
284;DHT22;125;52.516;13.426;2022-07-29T03:51:13;15.20;1.00
284;DHT22;125;52.516;13.426;2022-07-29T03:53:41;15.30;1.00
284;DHT22;125;52.516;13.426;2022-07-29T03:56:10;15.30;1.00
284;DHT22;125;52.516;13.426;2022-07-29T03:58:37;15.30;1.00
284;DHT22;125;52.516;13.426;2022-07-29T04:01:04;15.40;1.00
284;DHT22;125;52.516;13.426;2022-07-29T04:03:31;15.40;1.00
284;DHT22;125;52.516;13.426;2022-07-29T04:06:00;15.50;1.00
284;DHT22;125;52.516;13.426;2022-07-29T04:08:27;15.60;1.00
284;DHT22;125;52.516;13.426;2022-07-29T04:10:55;15.60;1.00
284;DHT22;125;52.516;13.426;2022-07-29T04:13:22;15.70;1.00
284;DHT22;125;52.516;13.426;2022-07-29T04:15:48;15.80;1.00
284;DHT22;125;52.516;13.426;2022-07-29T04:18:15;15.90;1.00
284;DHT22;125;52.516;13.426;2022-07-29T04:20:42;15.90;1.00
284;DHT22;125;52.516;13.426;2022-07-29T04:23:08;16.00;1.00
284;DHT22;125;52.516;13.426;2022-07-29T04:25:37;16.10;1.00
284;DHT22;125;52.516;13.426;2022-07-29T04:28:05;16.10;1.00
284;DHT22;125;52.516;13.426;2022-07-29T04:30:33;16.20;1.00
284;DHT22;125;52.516;13.426;2022-07-29T04:33:00;16.30;1.00
284;DHT22;125;52.516;13.426;2022-07-29T04:35:27;16.40;1.00
284;DHT22;125;52.516;13.426;2022-07-29T04:37:54;16.50;1.00
284;DHT22;125;52.516;13.426;2022-07-29T04:40:20;16.50;1.00
284;DHT22;125;52.516;13.426;2022-07-29T04:42:47;16.50;1.00
284;DHT22;125;52.516;13.426;2022-07-29T04:45:15;16.50;1.00
284;DHT22;125;52.516;13.426;2022-07-29T04:47:41;16.40;1.00
284;DHT22;125;52.516;13.426;2022-07-29T04:50:09;16.40;1.00
284;DHT22;125;52.516;13.426;2022-07-29T04:52:35;16.40;1.00
284;DHT22;125;52.516;13.426;2022-07-29T04:55:02;16.50;1.00
284;DHT22;125;52.516;13.426;2022-07-29T04:57:29;16.50;1.00
284;DHT22;125;52.516;13.426;2022-07-29T04:59:56;16.50;1.00
284;DHT22;125;52.516;13.426;2022-07-29T05:02:24;16.60;1.00
284;DHT22;125;52.516;13.426;2022-07-29T05:04:50;16.70;1.00
284;DHT22;125;52.516;13.426;2022-07-29T05:07:17;16.80;1.00
284;DHT22;125;52.516;13.426;2022-07-29T05:09:43;16.90;1.00
284;DHT22;125;52.516;13.426;2022-07-29T05:12:10;17.00;1.00
284;DHT22;125;52.516;13.426;2022-07-29T05:14:37;17.10;1.00
284;DHT22;125;52.516;13.426;2022-07-29T05:17:03;17.20;1.00
284;DHT22;125;52.516;13.426;2022-07-29T05:19:32;17.40;1.00
284;DHT22;125;52.516;13.426;2022-07-29T05:21:58;17.50;1.00
284;DHT22;125;52.516;13.426;2022-07-29T05:24:25;17.70;1.00
284;DHT22;125;52.516;13.426;2022-07-29T05:26:52;17.80;1.00
284;DHT22;125;52.516;13.426;2022-07-29T05:29:19;17.90;1.00
284;DHT22;125;52.516;13.426;2022-07-29T05:31:45;18.00;1.00
284;DHT22;125;52.516;13.426;2022-07-29T05:34:12;18.10;1.00
284;DHT22;125;52.516;13.426;2022-07-29T05:36:40;18.20;1.00
284;DHT22;125;52.516;13.426;2022-07-29T05:39:06;18.10;1.00
284;DHT22;125;52.516;13.426;2022-07-29T05:41:33;18.10;1.00
284;DHT22;125;52.516;13.426;2022-07-29T05:43:59;17.70;1.00
284;DHT22;125;52.516;13.426;2022-07-29T05:46:26;17.60;1.00
284;DHT22;125;52.516;13.426;2022-07-29T05:48:53;17.60;1.00
284;DHT22;125;52.516;13.426;2022-07-29T05:51:20;17.60;1.00
284;DHT22;125;52.516;13.426;2022-07-29T05:53:47;17.50;1.00
284;DHT22;125;52.516;13.426;2022-07-29T05:56:14;17.60;1.00
284;DHT22;125;52.516;13.426;2022-07-29T05:58:41;17.60;1.00
284;DHT22;125;52.516;13.426;2022-07-29T06:01:08;17.90;1.00
284;DHT22;125;52.516;13.426;2022-07-29T06:03:35;17.90;1.00
284;DHT22;125;52.516;13.426;2022-07-29T06:06:03;18.40;1.00
284;DHT22;125;52.516;13.426;2022-07-29T06:08:29;20.50;1.00
284;DHT22;125;52.516;13.426;2022-07-29T06:10:58;21.00;1.00
284;DHT22;125;52.516;13.426;2022-07-29T06:13:24;20.70;1.00
284;DHT22;125;52.516;13.426;2022-07-29T06:15:51;20.10;1.00
284;DHT22;125;52.516;13.426;2022-07-29T06:18:18;19.90;1.00
284;DHT22;125;52.516;13.426;2022-07-29T06:20:46;20.10;1.00
284;DHT22;125;52.516;13.426;2022-07-29T06:23:13;21.20;1.00
284;DHT22;125;52.516;13.426;2022-07-29T06:25:39;22.50;1.00
284;DHT22;125;52.516;13.426;2022-07-29T06:28:07;22.10;1.00
284;DHT22;125;52.516;13.426;2022-07-29T06:30:34;21.60;1.00
284;DHT22;125;52.516;13.426;2022-07-29T06:33:01;21.20;1.00
284;DHT22;125;52.516;13.426;2022-07-29T06:35:28;21.00;1.00
284;DHT22;125;52.516;13.426;2022-07-29T06:37:55;20.80;1.00
284;DHT22;125;52.516;13.426;2022-07-29T06:40:21;21.00;1.00
284;DHT22;125;52.516;13.426;2022-07-29T06:43:05;21.40;1.00
284;DHT22;125;52.516;13.426;2022-07-29T06:45:34;21.20;1.00
284;DHT22;125;52.516;13.426;2022-07-29T06:48:01;21.10;1.00
284;DHT22;125;52.516;13.426;2022-07-29T06:50:28;20.60;1.00
284;DHT22;125;52.516;13.426;2022-07-29T06:52:54;20.40;1.00
284;DHT22;125;52.516;13.426;2022-07-29T06:55:21;20.60;1.00
284;DHT22;125;52.516;13.426;2022-07-29T06:57:48;20.40;1.00
284;DHT22;125;52.516;13.426;2022-07-29T07:00:15;20.60;1.00
284;DHT22;125;52.516;13.426;2022-07-29T07:02:43;20.60;1.00
284;DHT22;125;52.516;13.426;2022-07-29T07:05:09;20.60;1.00
284;DHT22;125;52.516;13.426;2022-07-29T07:07:36;20.60;1.00
284;DHT22;125;52.516;13.426;2022-07-29T07:10:03;20.80;1.00
284;DHT22;125;52.516;13.426;2022-07-29T07:12:30;21.10;1.00
284;DHT22;125;52.516;13.426;2022-07-29T07:14:57;21.60;1.00
284;DHT22;125;52.516;13.426;2022-07-29T07:17:24;22.80;1.00
284;DHT22;125;52.516;13.426;2022-07-29T07:19:52;23.00;1.00
284;DHT22;125;52.516;13.426;2022-07-29T07:22:18;23.90;1.00
284;DHT22;125;52.516;13.426;2022-07-29T07:24:45;24.70;1.00
284;DHT22;125;52.516;13.426;2022-07-29T07:27:11;24.50;1.00
284;DHT22;125;52.516;13.426;2022-07-29T07:29:38;23.50;1.00
284;DHT22;125;52.516;13.426;2022-07-29T07:32:06;23.30;1.00
284;DHT22;125;52.516;13.426;2022-07-29T07:34:33;23.50;1.00
284;DHT22;125;52.516;13.426;2022-07-29T07:37:01;23.30;1.00
284;DHT22;125;52.516;13.426;2022-07-29T07:39:28;24.00;1.00
284;DHT22;125;52.516;13.426;2022-07-29T07:41:54;25.20;1.00
284;DHT22;125;52.516;13.426;2022-07-29T07:44:21;25.60;1.00
284;DHT22;125;52.516;13.426;2022-07-29T07:46:48;26.60;1.00
284;DHT22;125;52.516;13.426;2022-07-29T07:49:14;26.90;1.00
284;DHT22;125;52.516;13.426;2022-07-29T07:51:41;26.30;1.00
284;DHT22;125;52.516;13.426;2022-07-29T07:54:09;26.90;1.00
284;DHT22;125;52.516;13.426;2022-07-29T07:56:35;26.60;1.00
284;DHT22;125;52.516;13.426;2022-07-29T07:59:02;25.90;1.00
284;DHT22;125;52.516;13.426;2022-07-29T08:01:29;24.70;1.00
284;DHT22;125;52.516;13.426;2022-07-29T08:03:55;23.90;1.00
284;DHT22;125;52.516;13.426;2022-07-29T08:06:22;23.70;1.00
284;DHT22;125;52.516;13.426;2022-07-29T08:08:50;24.30;1.00
284;DHT22;125;52.516;13.426;2022-07-29T08:11:20;24.50;1.00
284;DHT22;125;52.516;13.426;2022-07-29T08:13:46;23.90;1.00
284;DHT22;125;52.516;13.426;2022-07-29T08:16:13;24.00;1.00
284;DHT22;125;52.516;13.426;2022-07-29T08:18:41;24.10;1.00
284;DHT22;125;52.516;13.426;2022-07-29T08:21:09;24.20;1.00
284;DHT22;125;52.516;13.426;2022-07-29T08:23:36;24.30;1.00
284;DHT22;125;52.516;13.426;2022-07-29T08:26:05;24.00;1.00
284;DHT22;125;52.516;13.426;2022-07-29T08:28:36;23.90;1.00
284;DHT22;125;52.516;13.426;2022-07-29T08:31:04;24.00;1.00
284;DHT22;125;52.516;13.426;2022-07-29T08:33:32;23.90;1.00
284;DHT22;125;52.516;13.426;2022-07-29T08:35:59;24.10;1.00
284;DHT22;125;52.516;13.426;2022-07-29T08:38:25;24.40;1.00
284;DHT22;125;52.516;13.426;2022-07-29T08:40:52;24.30;1.00
284;DHT22;125;52.516;13.426;2022-07-29T08:43:19;24.20;1.00
284;DHT22;125;52.516;13.426;2022-07-29T08:45:49;24.00;1.00
284;DHT22;125;52.516;13.426;2022-07-29T08:48:18;24.00;1.00
284;DHT22;125;52.516;13.426;2022-07-29T08:50:46;24.10;1.00
284;DHT22;125;52.516;13.426;2022-07-29T08:53:15;24.60;1.00
284;DHT22;125;52.516;13.426;2022-07-29T08:55:44;24.90;1.00
284;DHT22;125;52.516;13.426;2022-07-29T08:58:11;24.40;1.00
284;DHT22;125;52.516;13.426;2022-07-29T09:00:43;24.20;1.00
284;DHT22;125;52.516;13.426;2022-07-29T09:03:14;23.80;1.00
284;DHT22;125;52.516;13.426;2022-07-29T09:05:42;23.60;1.00
284;DHT22;125;52.516;13.426;2022-07-29T09:08:09;23.70;1.00
284;DHT22;125;52.516;13.426;2022-07-29T09:10:36;23.80;1.00
284;DHT22;125;52.516;13.426;2022-07-29T09:13:03;24.20;1.00
284;DHT22;125;52.516;13.426;2022-07-29T09:15:30;24.30;1.00
284;DHT22;125;52.516;13.426;2022-07-29T09:17:57;24.60;1.00
284;DHT22;125;52.516;13.426;2022-07-29T09:20:26;24.80;1.00
284;DHT22;125;52.516;13.426;2022-07-29T09:23:13;25.20;1.00
284;DHT22;125;52.516;13.426;2022-07-29T09:25:41;25.50;1.00
284;DHT22;125;52.516;13.426;2022-07-29T09:28:08;25.80;1.00
284;DHT22;125;52.516;13.426;2022-07-29T09:30:35;25.70;1.00
284;DHT22;125;52.516;13.426;2022-07-29T09:33:02;25.60;1.00
284;DHT22;125;52.516;13.426;2022-07-29T09:35:31;25.40;1.00
284;DHT22;125;52.516;13.426;2022-07-29T09:37:58;25.40;1.00
284;DHT22;125;52.516;13.426;2022-07-29T09:40:35;25.20;1.00
284;DHT22;125;52.516;13.426;2022-07-29T09:43:09;25.30;1.00
284;DHT22;125;52.516;13.426;2022-07-29T09:45:37;25.40;1.00
284;DHT22;125;52.516;13.426;2022-07-29T09:48:13;25.30;1.00
284;DHT22;125;52.516;13.426;2022-07-29T09:50:43;25.40;1.00
284;DHT22;125;52.516;13.426;2022-07-29T09:53:10;25.50;1.00
284;DHT22;125;52.516;13.426;2022-07-29T09:55:47;25.70;1.00
284;DHT22;125;52.516;13.426;2022-07-29T09:58:16;25.70;1.00
284;DHT22;125;52.516;13.426;2022-07-29T10:00:43;25.80;1.00
284;DHT22;125;52.516;13.426;2022-07-29T10:03:11;25.90;1.00
284;DHT22;125;52.516;13.426;2022-07-29T10:05:38;26.20;1.00
284;DHT22;125;52.516;13.426;2022-07-29T10:08:07;26.50;1.00
284;DHT22;125;52.516;13.426;2022-07-29T10:10:35;26.90;1.00
284;DHT22;125;52.516;13.426;2022-07-29T10:13:04;26.60;1.00
284;DHT22;125;52.516;13.426;2022-07-29T10:15:32;26.80;1.00
284;DHT22;125;52.516;13.426;2022-07-29T10:18:03;26.70;1.00
284;DHT22;125;52.516;13.426;2022-07-29T10:20:30;26.90;1.00
284;DHT22;125;52.516;13.426;2022-07-29T10:22:56;26.60;1.00
284;DHT22;125;52.516;13.426;2022-07-29T10:25:25;26.50;1.00
284;DHT22;125;52.516;13.426;2022-07-29T10:27:53;26.70;1.00
284;DHT22;125;52.516;13.426;2022-07-29T10:30:21;27.10;1.00
284;DHT22;125;52.516;13.426;2022-07-29T10:35:56;26.30;1.00
284;DHT22;125;52.516;13.426;2022-07-29T10:38:43;26.00;1.00
284;DHT22;125;52.516;13.426;2022-07-29T10:41:39;26.10;1.00
284;DHT22;125;52.516;13.426;2022-07-29T10:44:15;26.20;1.00
284;DHT22;125;52.516;13.426;2022-07-29T10:46:42;26.10;1.00
284;DHT22;125;52.516;13.426;2022-07-29T10:49:11;26.70;1.00
284;DHT22;125;52.516;13.426;2022-07-29T10:51:59;26.90;1.00
284;DHT22;125;52.516;13.426;2022-07-29T10:54:46;27.30;1.00
284;DHT22;125;52.516;13.426;2022-07-29T10:57:22;28.00;1.00
284;DHT22;125;52.516;13.426;2022-07-29T11:02:43;27.60;1.00
284;DHT22;125;52.516;13.426;2022-07-29T11:05:12;27.60;1.00
284;DHT22;125;52.516;13.426;2022-07-29T11:10:27;27.40;1.00
284;DHT22;125;52.516;13.426;2022-07-29T11:12:54;26.90;1.00
284;DHT22;125;52.516;13.426;2022-07-29T11:15:22;26.80;1.00
284;DHT22;125;52.516;13.426;2022-07-29T11:18:08;26.80;1.00
284;DHT22;125;52.516;13.426;2022-07-29T11:20:40;26.80;1.00
284;DHT22;125;52.516;13.426;2022-07-29T11:23:21;26.80;1.00
284;DHT22;125;52.516;13.426;2022-07-29T11:26:12;26.40;1.00
284;DHT22;125;52.516;13.426;2022-07-29T11:28:53;26.60;1.00
284;DHT22;125;52.516;13.426;2022-07-29T11:31:33;27.00;1.00
284;DHT22;125;52.516;13.426;2022-07-29T11:34:18;27.20;1.00
284;DHT22;125;52.516;13.426;2022-07-29T11:37:14;27.80;1.00
284;DHT22;125;52.516;13.426;2022-07-29T11:39:42;27.60;1.00
284;DHT22;125;52.516;13.426;2022-07-29T11:42:38;27.60;1.00
284;DHT22;125;52.516;13.426;2022-07-29T11:45:09;27.30;1.00
284;DHT22;125;52.516;13.426;2022-07-29T11:47:37;27.20;1.00
284;DHT22;125;52.516;13.426;2022-07-29T11:50:06;27.50;1.00
284;DHT22;125;52.516;13.426;2022-07-29T11:52:35;27.60;1.00
284;DHT22;125;52.516;13.426;2022-07-29T11:55:04;27.40;1.00
284;DHT22;125;52.516;13.426;2022-07-29T11:57:31;27.50;1.00
284;DHT22;125;52.516;13.426;2022-07-29T11:59:59;27.60;1.00
284;DHT22;125;52.516;13.426;2022-07-29T12:02:38;27.50;1.00
284;DHT22;125;52.516;13.426;2022-07-29T12:05:05;27.40;1.00
284;DHT22;125;52.516;13.426;2022-07-29T12:07:33;27.10;1.00
284;DHT22;125;52.516;13.426;2022-07-29T12:10:00;26.80;1.00
284;DHT22;125;52.516;13.426;2022-07-29T12:12:27;26.90;1.00
284;DHT22;125;52.516;13.426;2022-07-29T12:14:54;26.70;1.00
284;DHT22;125;52.516;13.426;2022-07-29T12:17:29;26.70;1.00
284;DHT22;125;52.516;13.426;2022-07-29T12:19:56;26.70;1.00
284;DHT22;125;52.516;13.426;2022-07-29T12:22:27;27.00;1.00
284;DHT22;125;52.516;13.426;2022-07-29T12:24:54;27.10;1.00
284;DHT22;125;52.516;13.426;2022-07-29T12:27:22;27.10;1.00
284;DHT22;125;52.516;13.426;2022-07-29T12:29:55;27.30;1.00
284;DHT22;125;52.516;13.426;2022-07-29T12:32:23;27.30;1.00
284;DHT22;125;52.516;13.426;2022-07-29T12:34:54;27.10;1.00
284;DHT22;125;52.516;13.426;2022-07-29T12:37:21;26.80;1.00
284;DHT22;125;52.516;13.426;2022-07-29T12:39:47;26.40;1.00
284;DHT22;125;52.516;13.426;2022-07-29T12:42:16;26.30;1.00
284;DHT22;125;52.516;13.426;2022-07-29T12:44:44;26.30;1.00
284;DHT22;125;52.516;13.426;2022-07-29T12:47:11;26.70;1.00
284;DHT22;125;52.516;13.426;2022-07-29T12:49:38;27.10;1.00
284;DHT22;125;52.516;13.426;2022-07-29T12:52:24;27.40;1.00
284;DHT22;125;52.516;13.426;2022-07-29T12:54:51;27.80;1.00
284;DHT22;125;52.516;13.426;2022-07-29T12:57:17;27.90;1.00
284;DHT22;125;52.516;13.426;2022-07-29T12:59:44;27.80;1.00
284;DHT22;125;52.516;13.426;2022-07-29T13:02:21;28.00;1.00
284;DHT22;125;52.516;13.426;2022-07-29T13:04:55;27.90;1.00
284;DHT22;125;52.516;13.426;2022-07-29T13:07:26;28.20;1.00
284;DHT22;125;52.516;13.426;2022-07-29T13:09:57;27.60;1.00
284;DHT22;125;52.516;13.426;2022-07-29T13:12:35;27.50;1.00
284;DHT22;125;52.516;13.426;2022-07-29T13:15:12;27.50;1.00
284;DHT22;125;52.516;13.426;2022-07-29T13:17:41;27.60;1.00
284;DHT22;125;52.516;13.426;2022-07-29T13:20:10;27.80;1.00
284;DHT22;125;52.516;13.426;2022-07-29T13:22:40;27.90;1.00
284;DHT22;125;52.516;13.426;2022-07-29T13:25:08;27.90;1.00
284;DHT22;125;52.516;13.426;2022-07-29T13:27:37;28.00;1.00
284;DHT22;125;52.516;13.426;2022-07-29T13:30:06;28.20;1.00
284;DHT22;125;52.516;13.426;2022-07-29T13:32:34;28.30;1.00
284;DHT22;125;52.516;13.426;2022-07-29T13:35:04;28.20;1.00
284;DHT22;125;52.516;13.426;2022-07-29T13:37:31;28.40;1.00
284;DHT22;125;52.516;13.426;2022-07-29T13:40:01;28.80;1.00
284;DHT22;125;52.516;13.426;2022-07-29T13:42:29;28.90;1.00
284;DHT22;125;52.516;13.426;2022-07-29T13:44:55;28.40;1.00
284;DHT22;125;52.516;13.426;2022-07-29T13:47:22;28.30;1.00
284;DHT22;125;52.516;13.426;2022-07-29T13:49:49;28.50;1.00
284;DHT22;125;52.516;13.426;2022-07-29T13:52:16;28.70;1.00
284;DHT22;125;52.516;13.426;2022-07-29T13:54:43;28.30;1.00
284;DHT22;125;52.516;13.426;2022-07-29T13:57:11;28.50;1.00
284;DHT22;125;52.516;13.426;2022-07-29T13:59:38;28.40;1.00
284;DHT22;125;52.516;13.426;2022-07-29T14:02:05;28.40;1.00
284;DHT22;125;52.516;13.426;2022-07-29T14:04:32;28.10;1.00
284;DHT22;125;52.516;13.426;2022-07-29T14:06:59;27.80;1.00
284;DHT22;125;52.516;13.426;2022-07-29T14:09:25;28.00;1.00
284;DHT22;125;52.516;13.426;2022-07-29T14:11:52;28.30;1.00
284;DHT22;125;52.516;13.426;2022-07-29T14:14:20;28.40;1.00
284;DHT22;125;52.516;13.426;2022-07-29T14:16:47;28.40;1.00
284;DHT22;125;52.516;13.426;2022-07-29T14:19:13;28.40;1.00
284;DHT22;125;52.516;13.426;2022-07-29T14:21:40;28.20;1.00
284;DHT22;125;52.516;13.426;2022-07-29T14:24:06;27.90;1.00
284;DHT22;125;52.516;13.426;2022-07-29T14:26:33;27.80;1.00
284;DHT22;125;52.516;13.426;2022-07-29T14:29:00;27.70;1.00
284;DHT22;125;52.516;13.426;2022-07-29T14:31:28;27.70;1.00
284;DHT22;125;52.516;13.426;2022-07-29T14:33:54;27.70;1.00
284;DHT22;125;52.516;13.426;2022-07-29T14:36:21;27.80;1.00
284;DHT22;125;52.516;13.426;2022-07-29T14:38:47;27.70;1.00
284;DHT22;125;52.516;13.426;2022-07-29T14:41:15;27.70;1.00
284;DHT22;125;52.516;13.426;2022-07-29T14:43:41;27.70;1.00
284;DHT22;125;52.516;13.426;2022-07-29T14:46:08;27.80;1.00
284;DHT22;125;52.516;13.426;2022-07-29T14:48:36;27.80;1.00
284;DHT22;125;52.516;13.426;2022-07-29T14:51:03;27.70;1.00
284;DHT22;125;52.516;13.426;2022-07-29T14:53:29;27.70;1.00
284;DHT22;125;52.516;13.426;2022-07-29T14:55:56;27.80;1.00
284;DHT22;125;52.516;13.426;2022-07-29T14:58:22;27.80;1.00
284;DHT22;125;52.516;13.426;2022-07-29T15:00:49;27.80;1.00
284;DHT22;125;52.516;13.426;2022-07-29T15:03:15;27.90;1.00
284;DHT22;125;52.516;13.426;2022-07-29T15:05:43;28.20;1.00
284;DHT22;125;52.516;13.426;2022-07-29T15:08:10;28.10;1.00
284;DHT22;125;52.516;13.426;2022-07-29T15:10:37;27.90;1.00
284;DHT22;125;52.516;13.426;2022-07-29T15:13:03;28.00;1.00
284;DHT22;125;52.516;13.426;2022-07-29T15:15:30;28.00;1.00
284;DHT22;125;52.516;13.426;2022-07-29T15:17:56;28.20;1.00
284;DHT22;125;52.516;13.426;2022-07-29T15:20:23;28.20;1.00
284;DHT22;125;52.516;13.426;2022-07-29T15:22:53;28.00;1.00
284;DHT22;125;52.516;13.426;2022-07-29T15:25:21;27.70;1.00
284;DHT22;125;52.516;13.426;2022-07-29T15:27:47;27.80;1.00
284;DHT22;125;52.516;13.426;2022-07-29T15:30:14;27.90;1.00
284;DHT22;125;52.516;13.426;2022-07-29T15:32:42;27.90;1.00
284;DHT22;125;52.516;13.426;2022-07-29T15:35:09;28.00;1.00
284;DHT22;125;52.516;13.426;2022-07-29T15:37:36;28.00;1.00
284;DHT22;125;52.516;13.426;2022-07-29T15:40:05;27.80;1.00
284;DHT22;125;52.516;13.426;2022-07-29T15:42:35;27.80;1.00
284;DHT22;125;52.516;13.426;2022-07-29T15:45:02;28.00;1.00
284;DHT22;125;52.516;13.426;2022-07-29T15:47:29;27.90;1.00
284;DHT22;125;52.516;13.426;2022-07-29T15:49:56;28.00;1.00
284;DHT22;125;52.516;13.426;2022-07-29T15:52:22;27.80;1.00
284;DHT22;125;52.516;13.426;2022-07-29T15:54:49;27.40;1.00
284;DHT22;125;52.516;13.426;2022-07-29T15:57:17;27.40;1.00
284;DHT22;125;52.516;13.426;2022-07-29T15:59:43;27.30;1.00
284;DHT22;125;52.516;13.426;2022-07-29T16:02:10;27.10;1.00
284;DHT22;125;52.516;13.426;2022-07-29T16:04:37;27.20;1.00
284;DHT22;125;52.516;13.426;2022-07-29T16:07:03;27.20;1.00
284;DHT22;125;52.516;13.426;2022-07-29T16:09:30;27.10;1.00
284;DHT22;125;52.516;13.426;2022-07-29T16:11:56;27.00;1.00
284;DHT22;125;52.516;13.426;2022-07-29T16:14:24;26.80;1.00
284;DHT22;125;52.516;13.426;2022-07-29T16:16:51;26.80;1.00
284;DHT22;125;52.516;13.426;2022-07-29T16:19:17;26.90;1.00
284;DHT22;125;52.516;13.426;2022-07-29T16:21:44;26.90;1.00
284;DHT22;125;52.516;13.426;2022-07-29T16:24:11;26.90;1.00
284;DHT22;125;52.516;13.426;2022-07-29T16:26:37;26.80;1.00
284;DHT22;125;52.516;13.426;2022-07-29T16:29:04;26.80;1.00
284;DHT22;125;52.516;13.426;2022-07-29T16:31:32;26.80;1.00
284;DHT22;125;52.516;13.426;2022-07-29T16:33:59;26.70;1.00
284;DHT22;125;52.516;13.426;2022-07-29T16:36:27;26.60;1.00
284;DHT22;125;52.516;13.426;2022-07-29T16:38:56;26.60;1.00
284;DHT22;125;52.516;13.426;2022-07-29T16:41:22;26.50;1.00
284;DHT22;125;52.516;13.426;2022-07-29T16:43:49;26.50;1.00
284;DHT22;125;52.516;13.426;2022-07-29T16:46:16;26.40;1.00
284;DHT22;125;52.516;13.426;2022-07-29T16:48:43;26.30;1.00
284;DHT22;125;52.516;13.426;2022-07-29T16:51:10;26.30;1.00
284;DHT22;125;52.516;13.426;2022-07-29T16:53:37;26.20;1.00
284;DHT22;125;52.516;13.426;2022-07-29T16:56:04;26.30;1.00